createdAt,value
2022-09-05T00:02:03.395Z,12.60
2022-09-05T00:05:31.355Z,12.51
2022-09-05T00:08:33.098Z,12.41
2022-09-05T00:11:43.891Z,12.36
2022-09-05T00:15:16.018Z,12.33
2022-09-05T00:20:40.685Z,12.25
2022-09-05T00:24:32.906Z,12.17
2022-09-05T00:25:31.714Z,12.08
2022-09-05T00:28:28.619Z,12.03
2022-09-05T00:31:56.140Z,11.97
2022-09-05T00:35:03.105Z,11.91
2022-09-05T00:37:51.125Z,11.82
2022-09-05T00:41:02.584Z,11.72
2022-09-05T00:43:51.208Z,11.63
2022-09-05T00:46:47.885Z,11.58
2022-09-05T00:49:44.355Z,11.49
2022-09-05T00:52:38.465Z,11.43
2022-09-05T00:56:07.206Z,11.36
2022-09-05T00:59:30.670Z,11.29
2022-09-05T01:02:49.806Z,11.19
2022-09-05T01:05:43.979Z,11.12
2022-09-05T01:09:07.314Z,11.05
2022-09-05T01:11:57.025Z,10.99
2022-09-05T01:15:15.000Z,10.96
2022-09-05T01:18:18.810Z,10.95
2022-09-05T01:21:26.405Z,10.92
2022-09-05T01:24:53.715Z,10.89
2022-09-05T01:29:13.165Z,10.86
2022-09-05T01:31:15.818Z,10.80
2022-09-05T01:34:29.647Z,10.78
2022-09-05T01:38:03.426Z,10.78
2022-09-05T01:41:18.356Z,10.74
2022-09-05T01:44:27.274Z,10.70
2022-09-05T01:47:37.054Z,10.65
2022-09-05T01:50:46.122Z,10.58
2022-09-05T01:54:24.401Z,10.54
2022-09-05T01:57:23.355Z,10.43
2022-09-05T02:00:22.790Z,10.37
2022-09-05T02:03:35.386Z,10.30
2022-09-05T02:06:50.613Z,10.25
2022-09-05T02:10:13.688Z,10.18
2022-09-05T02:13:30.458Z,10.08
2022-09-05T02:16:17.254Z,9.97
2022-09-05T02:19:09.308Z,9.90
2022-09-05T02:22:26.362Z,9.83
2022-09-05T02:26:03.000Z,9.77
2022-09-05T02:28:50.660Z,9.70
2022-09-05T02:32:06.455Z,9.62
2022-09-05T02:35:01.865Z,9.55
2022-09-05T02:40:56.008Z,9.48
2022-09-05T02:45:12.353Z,9.42
2022-09-05T02:45:20.203Z,9.34
2022-09-05T02:48:04.136Z,9.29
2022-09-05T02:56:36.251Z,9.22
2022-09-05T02:58:04.375Z,9.16
2022-09-05T02:58:16.244Z,9.10
2022-09-05T03:01:27.280Z,9.05
2022-09-05T03:04:35.055Z,8.95
2022-09-05T03:07:55.076Z,8.88
2022-09-05T03:10:54.675Z,8.83
2022-09-05T03:14:00.296Z,8.75
2022-09-05T03:17:21.211Z,8.69
2022-09-05T03:21:08.955Z,8.61
2022-09-05T03:24:12.364Z,8.55
2022-09-05T03:27:10.221Z,8.50
2022-09-05T03:30:17.485Z,8.41
2022-09-05T03:33:24.370Z,8.30
2022-09-05T03:36:55.568Z,8.19
2022-09-05T03:40:15.168Z,8.13
2022-09-05T03:43:26.241Z,8.07
2022-09-05T03:47:02.696Z,8.06
2022-09-05T03:57:06.020Z,8.05
2022-09-05T03:57:23.097Z,8.02
2022-09-05T03:57:32.363Z,8.05
2022-09-05T04:00:24.079Z,8.04
2022-09-05T04:08:07.635Z,8.03
2022-09-05T04:08:18.781Z,8.00
2022-09-05T04:10:02.763Z,7.98
2022-09-05T04:12:57.931Z,7.96
2022-09-05T04:15:54.739Z,7.94
2022-09-05T04:18:51.780Z,7.95
2022-09-05T04:21:54.855Z,7.95
2022-09-05T04:24:46.752Z,8.00
2022-09-05T04:27:38.765Z,8.05
2022-09-05T04:30:45.031Z,8.12
2022-09-05T04:33:46.703Z,8.17
2022-09-05T04:36:36.584Z,8.22
2022-09-05T04:39:22.297Z,8.27
2022-09-05T04:42:17.112Z,8.34
2022-09-05T04:45:12.935Z,8.44
2022-09-05T04:48:07.868Z,8.54
2022-09-05T04:51:02.105Z,8.64
2022-09-05T04:54:09.012Z,8.76
2022-09-05T04:57:15.965Z,8.87
2022-09-05T05:05:59.435Z,9.02
2022-09-05T05:06:17.933Z,9.24
2022-09-05T05:07:07.761Z,10.15
2022-09-05T05:10:25.585Z,11.53
2022-09-05T05:17:56.692Z,12.95
2022-09-05T05:18:13.107Z,14.12
2022-09-05T05:20:40.352Z,15.19
2022-09-05T05:23:07.578Z,16.29
2022-09-05T05:26:02.650Z,17.08
2022-09-05T05:29:00.330Z,17.86
2022-09-05T05:31:56.324Z,18.62
2022-09-05T05:34:46.405Z,19.06
2022-09-05T05:37:42.789Z,19.79
2022-09-05T05:40:42.356Z,20.47
2022-09-05T05:43:46.672Z,20.74
2022-09-05T05:46:38.477Z,20.90
2022-09-05T05:49:52.451Z,20.76
2022-09-05T05:52:50.817Z,20.03
2022-09-05T05:56:11.782Z,20.01
2022-09-05T05:59:16.390Z,20.08
2022-09-05T06:02:15.964Z,20.88
2022-09-05T06:05:27.735Z,21.69
2022-09-05T06:10:33.778Z,21.73
2022-09-05T06:14:57.997Z,21.23
2022-09-05T06:16:18.565Z,20.96
2022-09-05T06:19:08.591Z,20.90
2022-09-05T06:22:31.390Z,20.63
2022-09-05T06:25:54.713Z,20.87
2022-09-05T06:28:54.676Z,20.89
2022-09-05T06:32:12.605Z,20.34
2022-09-05T06:35:17.120Z,19.70
2022-09-05T06:38:24.901Z,19.33
2022-09-05T06:41:33.985Z,19.07
2022-09-05T06:45:27.836Z,19.08
2022-09-05T06:48:32.116Z,18.90
2022-09-05T06:51:49.145Z,18.76
2022-09-05T06:55:14.922Z,18.80
2022-09-05T06:58:22.747Z,18.81
2022-09-05T07:01:11.700Z,18.80
2022-09-05T07:05:23.347Z,18.90
2022-09-05T07:07:46.795Z,18.95
2022-09-05T07:10:39.973Z,19.11
2022-09-05T07:13:25.950Z,19.23
2022-09-05T07:16:42.051Z,19.45
2022-09-05T07:19:54.899Z,19.67
2022-09-05T07:23:40.929Z,19.77
2022-09-05T07:26:42.066Z,20.03
2022-09-05T07:29:28.153Z,20.19
2022-09-05T07:32:23.786Z,20.37
2022-09-05T07:35:31.259Z,20.78
2022-09-05T07:38:55.280Z,21.09
2022-09-05T07:41:55.685Z,21.29
2022-09-05T07:45:05.878Z,21.50
2022-09-05T07:48:15.695Z,21.91
2022-09-05T07:56:49.149Z,22.63
2022-09-05T07:56:54.262Z,22.21
2022-09-05T07:57:50.869Z,23.08
2022-09-05T08:00:37.682Z,23.36
2022-09-05T08:03:29.905Z,23.56
2022-09-05T08:07:34.347Z,23.75
2022-09-05T08:10:05.920Z,23.90
2022-09-05T08:13:24.352Z,24.20
2022-09-05T08:16:19.518Z,24.73
2022-09-05T08:19:28.459Z,25.18
2022-09-05T08:22:21.919Z,25.56
2022-09-05T08:25:35.000Z,26.19
2022-09-05T08:29:06.062Z,26.93
2022-09-05T08:32:01.077Z,27.36
2022-09-05T08:35:09.576Z,27.60
2022-09-05T08:37:58.215Z,27.85
2022-09-05T08:40:59.470Z,28.01
2022-09-05T08:46:17.035Z,28.18
2022-09-05T08:47:16.724Z,27.93
2022-09-05T08:50:28.625Z,28.14
2022-09-05T08:53:46.482Z,28.01
2022-09-05T08:56:47.936Z,27.97
2022-09-05T09:00:20.399Z,28.34
2022-09-05T09:03:20.503Z,29.18
2022-09-05T09:06:45.855Z,29.81
2022-09-05T09:10:13.897Z,29.18
2022-09-05T09:13:36.849Z,29.91
2022-09-05T09:16:33.858Z,30.83
2022-09-05T09:19:42.261Z,31.43
2022-09-05T09:22:50.631Z,32.28
2022-09-05T09:25:47.285Z,32.15
2022-09-05T09:29:07.170Z,32.48
2022-09-05T09:32:15.169Z,32.73
2022-09-05T09:35:07.129Z,32.67
2022-09-05T09:38:16.371Z,33.04
2022-09-05T09:41:29.295Z,32.70
2022-09-05T09:44:15.805Z,33.21
2022-09-05T09:47:09.440Z,33.49
2022-09-05T09:50:32.648Z,33.68
2022-09-05T09:53:37.211Z,34.31
2022-09-05T09:56:50.637Z,33.02
2022-09-05T10:00:10.342Z,33.09
2022-09-05T10:08:26.957Z,33.31
2022-09-05T10:10:34.107Z,33.49
2022-09-05T10:11:09.534Z,34.18
2022-09-05T10:13:59.594Z,34.29
2022-09-05T10:17:07.628Z,35.11
2022-09-05T10:20:15.295Z,35.24
2022-09-05T10:23:44.863Z,35.58
2022-09-05T10:27:00.790Z,36.64
2022-09-05T10:30:08.245Z,37.22
2022-09-05T10:35:19.950Z,37.44
2022-09-05T10:37:06.572Z,37.58
2022-09-05T10:39:52.780Z,37.93
2022-09-05T10:43:03.582Z,38.13
2022-09-05T10:46:06.232Z,38.54
2022-09-05T10:48:55.479Z,38.86
2022-09-05T10:52:13.138Z,38.30
2022-09-05T10:55:26.405Z,38.09
2022-09-05T11:02:11.558Z,37.34
2022-09-05T11:02:29.118Z,36.38
2022-09-05T11:05:19.484Z,35.49
2022-09-05T11:08:15.150Z,36.86
2022-09-05T11:11:26.002Z,37.94
2022-09-05T11:15:05.448Z,38.54
2022-09-05T11:18:11.328Z,38.65
2022-09-05T11:21:41.791Z,38.88
2022-09-05T11:24:27.707Z,39.02
2022-09-05T11:27:40.641Z,38.60
2022-09-05T11:30:35.557Z,38.58
2022-09-05T11:39:50.663Z,37.38
2022-09-05T11:39:59.729Z,37.23
2022-09-05T11:40:28.384Z,37.75
2022-09-05T11:44:07.144Z,37.15
2022-09-05T11:47:44.914Z,36.71
2022-09-05T11:50:30.859Z,37.17
2022-09-05T11:53:22.258Z,37.69
2022-09-05T11:56:13.976Z,38.21
2022-09-05T11:59:33.600Z,38.35
2022-09-05T12:02:39.412Z,38.43
2022-09-05T12:05:58.813Z,38.15
2022-09-05T12:08:55.004Z,38.55
2022-09-05T12:12:38.996Z,38.67
2022-09-05T12:15:34.546Z,38.92
2022-09-05T12:18:40.605Z,37.64
2022-09-05T12:21:50.865Z,35.74
2022-09-05T12:25:27.638Z,34.87
2022-09-05T12:29:33.517Z,33.68
2022-09-05T12:33:52.365Z,34.87
2022-09-05T12:36:06.665Z,34.45
2022-09-05T12:41:42.381Z,35.30
2022-09-05T12:41:44.588Z,36.63
2022-09-05T12:44:44.240Z,36.20
2022-09-05T12:47:31.527Z,33.99
2022-09-05T12:50:19.693Z,33.08
2022-09-05T12:53:11.195Z,33.47
2022-09-05T12:59:33.466Z,34.38
2022-09-05T13:03:00.951Z,35.72
2022-09-05T13:03:28.028Z,36.70
2022-09-05T13:06:26.199Z,37.01
2022-09-05T13:10:51.286Z,37.02
2022-09-05T13:14:57.076Z,37.62
2022-09-05T13:16:13.435Z,38.42
2022-09-05T13:19:31.386Z,38.56
2022-09-05T13:22:21.578Z,38.55
2022-09-05T13:25:16.849Z,38.53
2022-09-05T13:28:09.378Z,38.39
2022-09-05T13:36:20.820Z,38.21
2022-09-05T13:38:07.303Z,38.43
2022-09-05T13:38:30.571Z,38.63
2022-09-05T13:40:41.744Z,38.95
2022-09-05T13:43:39.695Z,38.56
2022-09-05T13:46:57.421Z,37.64
2022-09-05T13:50:13.844Z,37.28
2022-09-05T13:53:36.872Z,36.96
2022-09-05T13:56:28.350Z,37.19
2022-09-05T13:59:16.391Z,37.56
2022-09-05T14:03:29.576Z,37.75
2022-09-05T14:05:55.602Z,37.26
2022-09-05T14:09:35.153Z,36.56
2022-09-05T14:12:06.239Z,37.78
2022-09-05T14:15:14.059Z,38.76
2022-09-05T14:18:23.261Z,40.10
2022-09-05T14:21:17.537Z,41.71
2022-09-05T14:24:28.151Z,42.54
2022-09-05T14:27:31.820Z,43.80
2022-09-05T14:32:07.929Z,44.22
2022-09-05T14:37:38.868Z,44.33
2022-09-05T14:37:44.363Z,44.52
2022-09-05T14:40:06.730Z,44.97
2022-09-05T14:43:17.342Z,45.32
2022-09-05T14:46:32.750Z,45.59
2022-09-05T14:49:29.588Z,46.05
2022-09-05T14:51:58.483Z,43.75
2022-09-05T15:02:46.101Z,37.01
2022-09-05T15:02:48.566Z,35.38
2022-09-05T15:03:15.473Z,33.37
2022-09-05T15:05:50.505Z,33.77
2022-09-05T15:10:09.123Z,35.30
2022-09-05T15:12:21.983Z,37.94
2022-09-05T15:14:13.275Z,40.80
2022-09-05T15:17:05.424Z,41.72
2022-09-05T15:20:06.724Z,42.98
2022-09-05T15:22:43.237Z,43.83
2022-09-05T15:25:19.274Z,43.91
2022-09-05T15:27:49.799Z,43.90
2022-09-05T15:30:22.770Z,43.98
2022-09-05T15:33:19.148Z,43.91
2022-09-05T15:35:55.288Z,43.43
2022-09-05T15:38:31.342Z,42.41
2022-09-05T15:41:17.462Z,40.72
2022-09-05T15:43:51.639Z,40.18
2022-09-05T15:46:46.631Z,40.59
2022-09-05T15:49:33.178Z,40.88
2022-09-05T15:52:17.716Z,40.72
2022-09-05T15:54:50.537Z,40.31
2022-09-05T15:57:27.948Z,39.18
2022-09-05T16:00:06.335Z,38.19
2022-09-05T16:02:39.233Z,38.16
2022-09-05T16:10:27.108Z,37.87
2022-09-05T16:10:38.969Z,38.05
2022-09-05T16:12:05.193Z,38.23
2022-09-05T16:14:24.139Z,37.07
2022-09-05T16:23:13.325Z,36.41
2022-09-05T16:23:28.091Z,35.98
2022-09-05T16:23:42.055Z,35.32
2022-09-05T16:26:25.712Z,33.50
2022-09-05T16:29:26.436Z,30.91
2022-09-05T16:32:03.107Z,28.67
2022-09-05T16:34:54.976Z,27.39
2022-09-05T16:37:23.087Z,26.22
2022-09-05T16:40:21.859Z,25.47
2022-09-05T16:43:07.408Z,24.62
2022-09-05T16:45:52.543Z,23.99
2022-09-05T16:48:26.424Z,23.51
2022-09-05T16:51:35.742Z,23.03
2022-09-05T16:54:36.398Z,22.64
2022-09-05T16:57:09.283Z,22.32
2022-09-05T16:59:55.467Z,21.92
2022-09-05T17:02:44.166Z,21.50
2022-09-05T17:05:24.960Z,21.16
2022-09-05T17:08:03.155Z,20.80
2022-09-05T17:10:43.230Z,20.54
2022-09-05T17:13:34.261Z,20.30
2022-09-05T17:16:04.443Z,20.10
2022-09-05T17:18:38.060Z,19.85
2022-09-05T17:21:11.491Z,19.70
2022-09-05T17:29:20.603Z,19.55
2022-09-05T17:29:30.408Z,19.22
2022-09-05T17:31:23.390Z,18.96
2022-09-05T17:32:34.335Z,18.69
2022-09-05T17:35:17.779Z,18.47
2022-09-05T17:37:53.453Z,18.34
2022-09-05T17:41:06.519Z,18.18
2022-09-05T17:43:41.365Z,17.96
2022-09-05T17:46:12.309Z,17.85
2022-09-05T17:48:46.530Z,17.70
2022-09-05T17:51:26.905Z,17.62
2022-09-05T17:54:03.320Z,17.49
2022-09-05T17:56:40.274Z,17.34
2022-09-05T17:59:14.285Z,17.20
2022-09-05T18:02:02.435Z,17.08
2022-09-05T18:04:45.144Z,17.00
2022-09-05T18:07:25.814Z,16.91
2022-09-05T18:10:15.596Z,16.82
2022-09-05T18:13:31.835Z,16.78
2022-09-05T18:16:11.327Z,16.69
2022-09-05T18:19:32.159Z,16.70
2022-09-05T18:21:49.769Z,16.65
2022-09-05T18:24:48.651Z,16.62
2022-09-05T18:28:03.612Z,16.61
2022-09-05T18:30:28.574Z,16.58
2022-09-05T18:33:54.093Z,16.51
2022-09-05T18:35:55.614Z,16.44
2022-09-05T18:38:50.939Z,16.33
2022-09-05T18:41:28.646Z,16.23
2022-09-05T18:44:13.152Z,16.13
2022-09-05T18:46:53.529Z,16.13
2022-09-05T18:50:23.898Z,16.04
2022-09-05T18:52:24.158Z,15.81
2022-09-05T18:56:09.290Z,15.74
2022-09-05T18:58:13.513Z,15.77
2022-09-05T19:00:46.913Z,15.76
2022-09-05T19:03:34.803Z,15.65
2022-09-05T19:06:35.799Z,15.53
2022-09-05T19:09:04.880Z,15.49
2022-09-05T19:11:53.470Z,15.50
2022-09-05T19:14:35.295Z,15.41
2022-09-05T19:17:10.344Z,15.44
2022-09-05T19:20:31.401Z,15.47
2022-09-05T19:23:09.899Z,15.40
2022-09-05T19:25:44.153Z,15.36
2022-09-05T19:36:15.729Z,15.34
2022-09-05T19:37:02.462Z,15.26
2022-09-05T19:37:06.266Z,15.23
2022-09-05T19:37:29.363Z,15.16
2022-09-05T19:47:25.216Z,15.12
2022-09-05T19:47:33.801Z,15.11
2022-09-05T19:47:47.234Z,15.00
2022-09-05T19:48:35.242Z,14.94
2022-09-05T19:51:17.133Z,14.90
2022-09-05T19:54:04.889Z,14.88
2022-09-05T19:56:37.823Z,14.80
2022-09-05T19:59:27.205Z,14.78
2022-09-05T20:02:04.897Z,14.74
2022-09-05T20:04:54.866Z,14.69
2022-09-05T20:07:28.875Z,14.63
2022-09-05T20:09:59.276Z,14.61
2022-09-05T20:12:36.881Z,14.55
2022-09-05T20:15:25.817Z,14.48
2022-09-05T20:18:41.116Z,14.39
2022-09-05T20:21:09.488Z,14.31
2022-09-05T20:23:49.608Z,14.28
2022-09-05T20:26:24.855Z,14.20
2022-09-05T20:29:02.766Z,14.15
2022-09-05T20:31:47.407Z,14.10
2022-09-05T20:35:50.221Z,14.03
2022-09-05T20:43:15.137Z,14.04
2022-09-05T20:43:23.027Z,14.02
2022-09-05T20:43:35.019Z,13.96
2022-09-05T20:47:24.707Z,13.95
2022-09-05T20:54:13.918Z,13.91
2022-09-05T20:54:16.970Z,13.87
2022-09-05T20:54:42.464Z,13.78
2022-09-05T20:57:18.259Z,13.70
2022-09-05T20:59:47.449Z,13.62
2022-09-05T21:02:28.657Z,13.57
2022-09-05T21:05:20.846Z,13.51
2022-09-05T21:08:07.060Z,13.44
2022-09-05T21:10:55.538Z,13.37
2022-09-05T21:13:35.537Z,13.26
2022-09-05T21:16:15.960Z,13.20
2022-09-05T21:18:45.059Z,13.15
2022-09-05T21:21:28.535Z,13.08
2022-09-05T21:24:16.291Z,13.01
2022-09-05T21:26:48.955Z,12.94
2022-09-05T21:29:32.329Z,12.88
2022-09-05T21:32:10.288Z,12.78
2022-09-05T21:34:47.708Z,12.72
2022-09-05T21:37:17.865Z,12.68
2022-09-05T21:39:59.846Z,12.56
2022-09-05T21:45:56.276Z,12.43
2022-09-05T21:47:44.677Z,12.39
2022-09-05T21:48:15.652Z,12.33
2022-09-05T21:50:50.275Z,12.29
2022-09-05T21:57:12.855Z,12.26
2022-09-05T21:59:19.802Z,12.20
2022-09-05T21:59:38.872Z,12.17
2022-09-05T22:02:17.081Z,12.09
2022-09-05T22:04:47.441Z,12.06
2022-09-05T22:07:31.850Z,12.00
2022-09-05T22:10:07.037Z,11.94
2022-09-05T22:12:37.155Z,11.91
2022-09-05T22:15:27.529Z,11.88
2022-09-05T22:18:16.668Z,11.86
2022-09-05T22:21:32.080Z,11.82
2022-09-05T22:23:47.105Z,11.78
2022-09-05T22:26:18.066Z,11.75
2022-09-05T22:28:52.203Z,11.71
2022-09-05T22:31:22.008Z,11.68
2022-09-05T22:33:51.413Z,11.65
2022-09-05T22:36:20.165Z,11.58
2022-09-05T22:38:48.399Z,11.58
2022-09-05T22:41:17.114Z,11.57
2022-09-05T22:43:46.530Z,11.53
2022-09-05T22:46:15.223Z,11.51
2022-09-05T22:48:43.789Z,11.47
2022-09-05T22:51:12.198Z,11.47
2022-09-05T22:53:40.315Z,11.43
2022-09-05T22:56:09.774Z,11.41
2022-09-05T22:58:40.485Z,11.36
2022-09-05T23:01:09.702Z,11.32
2022-09-05T23:03:38.338Z,11.25
2022-09-05T23:06:09.371Z,11.18
2022-09-05T23:08:37.435Z,11.12
2022-09-05T23:11:11.438Z,11.06
2022-09-05T23:13:39.705Z,11.01
2022-09-05T23:16:09.077Z,10.95
2022-09-05T23:18:37.579Z,10.90
2022-09-05T23:21:11.810Z,10.87
2022-09-05T23:23:41.567Z,10.82
2022-09-05T23:26:13.412Z,10.77
2022-09-05T23:28:43.664Z,10.72
2022-09-05T23:31:12.993Z,10.65
2022-09-05T23:33:42.095Z,10.61
2022-09-05T23:36:14.012Z,10.57
2022-09-05T23:38:43.679Z,10.52
2022-09-05T23:41:14.424Z,10.48
2022-09-05T23:43:43.110Z,10.44
2022-09-05T23:46:11.469Z,10.43
2022-09-05T23:48:39.962Z,10.44
2022-09-05T23:51:10.831Z,10.44
2022-09-05T23:53:39.337Z,10.41
2022-09-05T23:56:09.775Z,10.33
2022-09-05T23:58:39.014Z,10.26
